Time;durP1;ratioP1;P1;durP2;ratioP2;P2;SDS_P1;SDS_P2;PMS_P1;PMS_P2;Temp;Humidity;BMP_temperature;BMP_pressure;BME280_temperature;BME280_humidity;BME280_pressure;Samples;Min_cycle;Max_cycle;Signal;HPM_P1;HPM_P2
2022/09/20 00:00:32;;;;;;;0.97;0.87;;;10.80;97.30;;;;;;5000408;28;20434;-96
2022/09/20 00:02:58;;;;;;;1.07;0.97;;;10.80;97.30;;;;;;5021102;28;20210;-92
2022/09/20 00:05:23;;;;;;;1.20;1.10;;;10.80;97.30;;;;;;5014158;28;20181;-94
2022/09/20 00:07:51;;;;;;;1.63;1.57;;;10.80;97.30;;;;;;5003511;28;20184;-94
2022/09/20 00:10:17;;;;;;;1.07;0.97;;;10.70;97.30;;;;;;5005398;28;20194;-93
2022/09/20 00:12:43;;;;;;;1.17;1.10;;;10.70;97.30;;;;;;4991599;28;20429;-90
2022/09/20 00:15:11;;;;;;;1.20;1.10;;;10.70;97.30;;;;;;5005312;28;20552;-95
2022/09/20 00:17:36;;;;;;;1.20;1.10;;;10.70;97.30;;;;;;5010236;28;20181;-94
2022/09/20 00:20:02;;;;;;;1.00;0.90;;;10.70;97.30;;;;;;4994707;28;20449;-94
2022/09/20 00:22:28;;;;;;;1.10;1.00;;;10.70;97.30;;;;;;4994579;28;20172;-94
2022/09/20 00:24:53;;;;;;;1.10;1.07;;;10.70;97.30;;;;;;5013146;28;20247;-96
2022/09/20 00:27:19;;;;;;;1.10;1.00;;;10.70;97.30;;;;;;4999229;28;20230;-96
2022/09/20 00:29:44;;;;;;;1.40;1.30;;;10.70;97.30;;;;;;4998635;28;20197;-93
2022/09/20 00:32:10;;;;;;;1.07;0.97;;;10.70;97.30;;;;;;4999310;28;20177;-95
2022/09/20 00:37:23;;;;;;;1.10;1.00;;;10.70;97.30;;;;;;5025157;28;20212;-91
2022/09/20 00:39:48;;;;;;;1.60;1.50;;;10.70;97.30;;;;;;5014081;28;20436;-96
2022/09/20 00:42:14;;;;;;;1.10;1.00;;;10.80;97.30;;;;;;5010968;28;20435;-96
2022/09/20 00:45:00;;;;;;;1.17;1.07;;;10.80;97.30;;;;;;5004098;28;20197;-96
2022/09/20 00:47:42;;;;;;;0.90;0.80;;;10.80;97.30;;;;;;5019687;28;20189;-95
2022/09/20 00:50:28;;;;;;;4.10;2.70;;;10.80;97.30;;;;;;5016566;28;20488;-96
2022/09/20 00:53:00;;;;;;;1.10;1.00;;;10.80;97.30;;;;;;5001057;28;20432;-96
2022/09/20 00:55:27;;;;;;;1.10;1.00;;;10.80;97.30;;;;;;5016628;28;20441;-95
2022/09/20 00:57:53;;;;;;;1.00;0.90;;;10.80;97.30;;;;;;5005908;28;20460;-95
2022/09/20 01:00:20;;;;;;;8.17;2.33;;;10.80;97.30;;;;;;4999703;28;20480;-95
2022/09/20 01:02:50;;;;;;;1.10;1.00;;;10.80;97.30;;;;;;5016231;28;20424;-96
2022/09/20 01:05:18;;;;;;;1.80;1.70;;;10.80;97.30;;;;;;4999786;28;20468;-95
2022/09/20 01:07:47;;;;;;;1.10;1.00;;;10.80;97.30;;;;;;4997035;28;20422;-96
2022/09/20 01:10:13;;;;;;;1.37;1.27;;;10.80;97.30;;;;;;5014301;28;20423;-96
2022/09/20 01:12:41;;;;;;;3.70;1.23;;;10.80;97.30;;;;;;5016662;28;20414;-96
2022/09/20 01:15:09;;;;;;;0.90;0.90;;;10.90;97.30;;;;;;5030950;28;20247;-96
2022/09/20 01:17:37;;;;;;;1.10;1.00;;;10.90;97.30;;;;;;5032887;28;20516;-93
2022/09/20 01:20:13;;;;;;;1.30;1.20;;;10.90;97.30;;;;;;5027781;28;20448;-94
2022/09/20 01:22:57;;;;;;;0.90;0.90;;;10.90;97.30;;;;;;4999033;28;20560;-96
2022/09/20 01:25:49;;;;;;;1.53;1.07;;;10.80;97.30;;;;;;5015361;28;20472;-95
2022/09/20 01:28:15;;;;;;;1.10;1.00;;;10.80;97.30;;;;;;5032414;28;20512;-96
2022/09/20 01:31:01;;;;;;;1.03;0.97;;;10.80;97.30;;;;;;5017187;28;20486;-96
2022/09/20 01:33:48;;;;;;;1.40;1.00;;;10.80;97.30;;;;;;5032516;28;20440;-96
2022/09/20 01:36:22;;;;;;;1.47;1.37;;;10.80;97.30;;;;;;5015161;28;20435;-96
2022/09/20 01:38:56;;;;;;;1.53;1.10;;;10.80;97.30;;;;;;5032223;28;20437;-96
2022/09/20 01:41:35;;;;;;;1.00;1.00;;;10.80;97.30;;;;;;5032588;28;20407;-96
2022/09/20 01:44:27;;;;;;;1.10;1.00;;;10.80;97.30;;;;;;5032000;28;20491;-96
2022/09/20 01:47:11;;;;;;;1.10;1.00;;;10.80;97.30;;;;;;5006714;28;20465;-96
2022/09/20 01:49:59;;;;;;;1.20;1.10;;;10.70;97.30;;;;;;5034630;28;20488;-96
2022/09/20 01:52:35;;;;;;;0.70;0.70;;;10.70;97.30;;;;;;5033046;28;20452;-95
2022/09/20 01:55:37;;;;;;;0.90;0.80;;;10.60;97.30;;;;;;5031555;28;20445;-96
2022/09/20 01:58:27;;;;;;;1.20;1.10;;;10.60;97.30;;;;;;5040684;28;20419;-95
2022/09/20 02:01:29;;;;;;;1.10;1.00;;;10.60;97.30;;;;;;5015725;28;20452;-95
2022/09/20 02:04:32;;;;;;;1.27;1.17;;;10.50;97.30;;;;;;4963708;28;20499;-96
2022/09/20 02:07:18;;;;;;;1.20;1.10;;;10.50;97.30;;;;;;5014905;28;20523;-94
2022/09/20 02:10:08;;;;;;;3.77;1.23;;;10.50;97.30;;;;;;5014961;28;20419;-96
2022/09/20 02:12:40;;;;;;;1.60;1.43;;;10.50;97.30;;;;;;5033413;28;20425;-96
2022/09/20 02:15:50;;;;;;;3.43;1.10;;;10.50;97.30;;;;;;5017491;28;20588;-95
2022/09/20 02:18:53;;;;;;;1.10;1.00;;;10.50;97.30;;;;;;5021718;28;20434;-96
2022/09/20 02:21:57;;;;;;;1.10;1.00;;;10.50;97.30;;;;;;5020032;28;20487;-96
2022/09/20 02:24:36;;;;;;;1.47;1.37;;;10.50;97.30;;;;;;5019372;28;20443;-96
2022/09/20 02:27:25;;;;;;;2.30;1.33;;;10.60;97.30;;;;;;5048991;28;20482;-96
2022/09/20 02:30:11;;;;;;;1.23;1.13;;;10.60;97.30;;;;;;5039855;28;20423;-94
2022/09/20 02:33:11;;;;;;;1.30;1.20;;;10.50;97.30;;;;;;5035513;28;20442;-93
2022/09/20 02:35:50;;;;;;;7.73;1.50;;;10.50;97.30;;;;;;5046353;28;20436;-95
2022/09/20 02:38:54;;;;;;;1.10;1.00;;;10.50;97.30;;;;;;5015375;28;20408;-95
2022/09/20 02:41:34;;;;;;;1.10;1.00;;;10.40;97.30;;;;;;5040272;28;20432;-95
2022/09/20 02:44:35;;;;;;;1.20;1.10;;;10.40;97.30;;;;;;5029753;28;20469;-96
2022/09/20 02:47:24;;;;;;;1.30;1.20;;;10.40;97.30;;;;;;5025763;28;20463;-96
2022/09/20 02:50:23;;;;;;;1.00;0.90;;;10.40;97.30;;;;;;5027751;28;20655;-95
2022/09/20 02:53:28;;;;;;;1.20;1.10;;;10.40;97.30;;;;;;5016188;28;20430;-96
2022/09/20 02:56:31;;;;;;;1.67;1.20;;;10.40;97.30;;;;;;5045719;28;20412;-96
2022/09/20 02:59:08;;;;;;;1.73;1.20;;;10.40;97.30;;;;;;5019560;28;20433;-93
2022/09/20 03:01:59;;;;;;;2.30;1.30;;;10.40;97.30;;;;;;5037983;28;20929;-93
2022/09/20 03:04:44;;;;;;;2.60;1.60;;;10.40;97.30;;;;;;5022710;28;20538;-93
2022/09/20 03:07:39;;;;;;;1.10;1.00;;;10.40;97.30;;;;;;5020862;28;20416;-94
2022/09/20 03:10:30;;;;;;;1.40;1.30;;;10.40;97.30;;;;;;5001114;28;20942;-93
2022/09/20 03:13:09;;;;;;;1.10;1.00;;;10.40;97.30;;;;;;5023711;28;20435;-94
2022/09/20 03:16:06;;;;;;;1.20;1.10;;;10.40;97.30;;;;;;5025284;28;20471;-93
2022/09/20 03:18:59;;;;;;;1.10;1.00;;;10.40;97.30;;;;;;5024757;28;20458;-93
2022/09/20 03:21:53;;;;;;;1.00;0.90;;;10.40;97.30;;;;;;5018793;28;20508;-94
2022/09/20 03:24:41;;;;;;;0.90;0.90;;;10.40;97.30;;;;;;5028389;28;20463;-95
2022/09/20 03:27:32;;;;;;;1.00;0.90;;;10.40;97.30;;;;;;5030265;28;20945;-94
2022/09/20 03:30:09;;;;;;;1.80;1.70;;;10.40;97.30;;;;;;5015475;28;20483;-95
2022/09/20 03:32:49;;;;;;;1.00;0.90;;;10.40;97.30;;;;;;5019692;28;20941;-93
2022/09/20 03:35:42;;;;;;;1.20;1.20;;;10.40;97.30;;;;;;5030719;28;20443;-94
2022/09/20 03:38:36;;;;;;;1.47;1.23;;;10.40;97.30;;;;;;5019327;28;20412;-95
2022/09/20 03:41:31;;;;;;;1.57;1.07;;;10.40;97.30;;;;;;5014259;28;20419;-95
2022/09/20 03:43:56;;;;;;;1.20;1.10;;;10.40;97.30;;;;;;5027447;28;20475;-93
2022/09/20 03:46:27;;;;;;;3.13;1.50;;;10.40;97.30;;;;;;5025880;28;20471;-93
2022/09/20 03:49:36;;;;;;;2.90;1.87;;;10.40;97.30;;;;;;5025848;28;20208;-94
2022/09/20 03:52:28;;;;;;;0.97;0.90;;;10.40;97.30;;;;;;5029135;28;20424;-92
2022/09/20 03:55:03;;;;;;;1.10;1.00;;;10.40;97.30;;;;;;5025551;28;20424;-92
2022/09/20 03:57:48;;;;;;;1.07;0.97;;;10.40;97.30;;;;;;5012438;28;20415;-94
2022/09/20 04:00:32;;;;;;;3.43;1.20;;;10.40;97.30;;;;;;5026119;28;20424;-96
2022/09/20 04:03:26;;;;;;;1.23;1.13;;;10.40;97.30;;;;;;5017802;28;20427;-95
2022/09/20 04:06:30;;;;;;;1.00;0.90;;;10.40;97.30;;;;;;5041541;28;20479;-96
2022/09/20 04:09:36;;;;;;;1.20;1.10;;;10.40;97.30;;;;;;5014651;28;20413;-95
2022/09/20 04:12:25;;;;;;;1.10;1.00;;;10.40;97.30;;;;;;5021782;28;20443;-95
2022/09/20 04:15:03;;;;;;;2.13;1.43;;;10.40;97.30;;;;;;5026489;28;20956;-93
2022/09/20 04:18:04;;;;;;;1.10;1.00;;;10.30;97.30;;;;;;5016398;28;20930;-93
2022/09/20 04:20:45;;;;;;;1.10;1.00;;;10.30;97.30;;;;;;5007340;28;20427;-93
2022/09/20 04:23:34;;;;;;;1.00;0.90;;;10.30;97.30;;;;;;5019520;28;20526;-93
2022/09/20 04:26:01;;;;;;;1.10;1.00;;;10.30;97.30;;;;;;5025031;28;20460;-96
2022/09/20 04:28:41;;;;;;;1.47;1.37;;;10.30;97.30;;;;;;5031028;28;20416;-93
2022/09/20 04:31:25;;;;;;;1.57;1.47;;;10.20;97.30;;;;;;5020004;28;20421;-96
2022/09/20 04:33:56;;;;;;;1.20;1.10;;;10.20;97.30;;;;;;5019362;28;20438;-96
2022/09/20 04:36:34;;;;;;;1.37;1.17;;;10.20;97.30;;;;;;5043935;28;20421;-96
2022/09/20 04:39:28;;;;;;;1.00;1.00;;;10.20;97.30;;;;;;5035994;28;20459;-96
2022/09/20 04:42:20;;;;;;;2.20;1.00;;;10.20;97.30;;;;;;5018230;28;20436;-96
2022/09/20 04:45:11;;;;;;;1.90;1.63;;;10.10;97.30;;;;;;5017078;28;20448;-96
2022/09/20 04:47:58;;;;;;;0.90;0.87;;;10.10;97.30;;;;;;5030592;28;20454;-96
2022/09/20 04:50:51;;;;;;;1.83;1.67;;;10.10;97.30;;;;;;4999294;28;20433;-96
2022/09/20 04:53:38;;;;;;;1.47;1.27;;;10.10;97.30;;;;;;5032353;28;20470;-96
2022/09/20 04:56:13;;;;;;;1.20;1.10;;;10.10;97.30;;;;;;5017034;28;20443;-92
2022/09/20 04:59:20;;;;;;;1.17;1.07;;;10.10;97.30;;;;;;5049313;28;20446;-96
2022/09/20 05:02:11;;;;;;;4.87;1.13;;;10.10;97.30;;;;;;5035921;28;20444;-95
2022/09/20 05:05:03;;;;;;;1.53;1.20;;;10.10;97.30;;;;;;5047075;28;20444;-95
2022/09/20 05:07:57;;;;;;;1.00;0.90;;;10.10;97.30;;;;;;5050827;28;20431;-94
2022/09/20 05:10:55;;;;;;;1.53;1.20;;;10.10;97.30;;;;;;5049040;28;20412;-96
2022/09/20 05:13:55;;;;;;;1.80;1.80;;;10.10;97.30;;;;;;5008143;28;20456;-96
2022/09/20 05:16:25;;;;;;;1.47;1.37;;;10.10;97.30;;;;;;5040407;28;20483;-95
2022/09/20 05:19:25;;;;;;;1.33;1.20;;;10.10;97.30;;;;;;5031082;28;20436;-93
2022/09/20 05:22:10;;;;;;;2.77;1.63;;;10.10;97.30;;;;;;5032588;28;20428;-95
2022/09/20 05:24:53;;;;;;;1.40;1.30;;;10.20;97.30;;;;;;5020391;28;20661;-96
2022/09/20 05:27:44;;;;;;;1.70;1.70;;;10.20;97.30;;;;;;5023494;28;20424;-95
2022/09/20 05:30:36;;;;;;;3.10;2.90;;;10.20;97.30;;;;;;5044998;28;20432;-95
2022/09/20 05:33:19;;;;;;;1.73;1.63;;;10.20;97.30;;;;;;5020002;28;20512;-96
2022/09/20 05:36:01;;;;;;;6.73;1.37;;;10.20;97.30;;;;;;5002985;28;20428;-96
2022/09/20 05:38:44;;;;;;;2.80;2.60;;;10.20;97.30;;;;;;5013610;28;20437;-95
2022/09/20 05:41:31;;;;;;;1.60;1.53;;;10.20;97.30;;;;;;5010182;28;20412;-93
2022/09/20 05:44:33;;;;;;;2.03;1.90;;;10.20;97.30;;;;;;5018613;28;20445;-93
2022/09/20 05:47:30;;;;;;;3.13;2.53;;;10.20;97.30;;;;;;5007296;28;20475;-95
2022/09/20 05:50:15;;;;;;;3.07;1.50;;;10.20;97.30;;;;;;5005751;28;20499;-93
2022/09/20 05:52:43;;;;;;;1.57;1.30;;;10.20;97.30;;;;;;5018788;28;20511;-91
2022/09/20 05:55:46;;;;;;;1.23;1.13;;;10.20;97.30;;;;;;5020295;28;20424;-92
2022/09/20 05:58:45;;;;;;;1.70;1.60;;;10.30;97.30;;;;;;5003881;28;20792;-92
2022/09/20 06:01:22;;;;;;;2.83;2.27;;;10.30;97.30;;;;;;5002393;28;20424;-94
2022/09/20 06:04:10;;;;;;;1.57;1.47;;;10.40;97.30;;;;;;5018402;28;20446;-94
2022/09/20 06:07:05;;;;;;;5.60;1.83;;;10.40;97.30;;;;;;4986922;28;20495;-94
2022/09/20 06:09:40;;;;;;;2.07;1.93;;;10.30;97.30;;;;;;5019260;28;20420;-93
2022/09/20 06:12:28;;;;;;;18.63;3.40;;;10.30;97.30;;;;;;5013393;28;20430;-92
2022/09/20 06:15:03;;;;;;;3.77;1.70;;;10.30;97.30;;;;;;5020975;28;20463;-93
2022/09/20 06:17:35;;;;;;;1.83;1.70;;;10.30;97.30;;;;;;5016175;28;20847;-92
2022/09/20 06:20:28;;;;;;;3.63;1.93;;;10.40;97.30;;;;;;5002096;28;20475;-93
2022/09/20 06:22:57;;;;;;;1.63;1.33;;;10.40;97.30;;;;;;5028744;28;20451;-93
2022/09/20 06:25:28;;;;;;;1.67;1.57;;;10.40;97.30;;;;;;5016127;28;20514;-93
2022/09/20 06:28:11;;;;;;;3.57;2.47;;;10.40;97.30;;;;;;5015545;28;20430;-93
2022/09/20 06:30:43;;;;;;;8.03;3.67;;;10.40;97.30;;;;;;5001570;28;20428;-92
2022/09/20 06:33:14;;;;;;;1.60;1.50;;;10.50;97.30;;;;;;5017546;28;20440;-92
2022/09/20 06:35:45;;;;;;;3.27;1.97;;;10.50;97.30;;;;;;5026696;28;20480;-91
2022/09/20 06:41:27;;;;;;;1.83;1.63;;;10.50;97.30;;;;;;5026240;28;20410;-94
2022/09/20 06:44:00;;;;;;;7.80;3.90;;;10.50;97.30;;;;;;5003312;28;20458;-92
2022/09/20 06:46:30;;;;;;;3.00;2.73;;;10.50;97.30;;;;;;5025304;28;20470;-92
2022/09/20 06:48:56;;;;;;;7.77;2.17;;;10.50;97.30;;;;;;5024077;28;20443;-91
2022/09/20 06:51:24;;;;;;;2.60;2.13;;;10.50;97.30;;;;;;5025694;28;20417;-92
2022/09/20 06:53:50;;;;;;;6.47;2.67;;;10.60;97.30;;;;;;5027973;28;20782;-94
2022/09/20 06:56:19;;;;;;;4.70;2.20;;;10.60;97.30;;;;;;5028790;28;20479;-94
2022/09/20 06:58:45;;;;;;;3.63;1.70;;;10.60;97.30;;;;;;5029404;28;20204;-93
2022/09/20 07:01:12;;;;;;;4.00;2.80;;;10.60;97.30;;;;;;5017630;28;20424;-93
2022/09/20 07:03:38;;;;;;;2.70;2.10;;;10.70;97.30;;;;;;5033864;28;20204;-94
2022/09/20 07:06:04;;;;;;;7.73;4.33;;;10.70;97.30;;;;;;5006559;28;20559;-94
2022/09/20 07:08:29;;;;;;;2.87;2.40;;;10.80;97.30;;;;;;5018053;28;20471;-94
2022/09/20 07:10:55;;;;;;;4.10;1.80;;;10.80;97.30;;;;;;5005075;28;20474;-93
2022/09/20 07:13:21;;;;;;;5.23;3.33;;;10.80;97.30;;;;;;5021887;28;20189;-91
2022/09/20 07:15:46;;;;;;;3.37;2.70;;;10.90;97.30;;;;;;5023273;28;20256;-92
2022/09/20 07:18:12;;;;;;;3.50;2.03;;;10.90;97.30;;;;;;5023012;28;20448;-92
2022/09/20 07:20:38;;;;;;;4.60;2.00;;;10.90;97.30;;;;;;5037391;28;20256;-94
2022/09/20 07:23:04;;;;;;;4.53;2.60;;;10.90;97.30;;;;;;5031828;28;20228;-92
2022/09/20 07:25:30;;;;;;;2.40;1.87;;;11.00;97.30;;;;;;5018131;28;20466;-92
2022/09/20 07:27:56;;;;;;;2.77;1.70;;;11.00;97.30;;;;;;5021606;28;20218;-93
2022/09/20 07:30:22;;;;;;;3.80;2.70;;;11.00;97.30;;;;;;5027547;28;20439;-93
2022/09/20 07:32:47;;;;;;;2.90;2.17;;;11.00;97.30;;;;;;5021127;28;20188;-93
2022/09/20 07:35:13;;;;;;;1.90;1.80;;;11.00;97.30;;;;;;5018575;28;20208;-93
2022/09/20 07:37:41;;;;;;;4.87;2.20;;;11.00;97.30;;;;;;5019080;28;20216;-93
2022/09/20 07:40:09;;;;;;;2.00;1.80;;;11.00;97.30;;;;;;5019844;28;20243;-92
2022/09/20 07:42:37;;;;;;;28.07;3.40;;;11.00;97.30;;;;;;5010931;28;20464;-92
2022/09/20 07:45:03;;;;;;;3.53;2.90;;;11.00;97.30;;;;;;5020401;28;20516;-94
2022/09/20 07:47:34;;;;;;;2.23;2.03;;;11.10;97.30;;;;;;5013972;28;20449;-95
2022/09/20 07:50:02;;;;;;;4.10;2.67;;;11.10;97.30;;;;;;5023652;28;20421;-92
2022/09/20 07:52:28;;;;;;;1.53;1.43;;;11.20;97.30;;;;;;5025592;28;20420;-92
2022/09/20 07:54:53;;;;;;;2.77;2.40;;;11.20;97.30;;;;;;5032033;28;20451;-93
2022/09/20 07:57:19;;;;;;;2.67;2.17;;;11.20;97.30;;;;;;5003263;28;20173;-93
2022/09/20 07:59:47;;;;;;;3.33;1.57;;;11.20;97.30;;;;;;5023607;28;20169;-96
2022/09/20 08:02:16;;;;;;;3.00;2.70;;;11.20;97.30;;;;;;5041879;28;20237;-94
2022/09/20 08:04:42;;;;;;;3.10;2.43;;;11.20;97.30;;;;;;5042175;28;20444;-93
2022/09/20 08:07:11;;;;;;;3.73;1.87;;;11.30;97.30;;;;;;5012198;28;20671;-93
2022/09/20 08:09:39;;;;;;;2.80;2.27;;;11.30;97.30;;;;;;5018734;28;20480;-92
2022/09/20 08:15:11;;;;;;;4.77;3.27;;;11.40;97.30;;;;;;5016270;28;20969;-93
2022/09/20 08:17:39;;;;;;;6.73;2.40;;;11.40;97.30;;;;;;4999951;28;20429;-93
2022/09/20 08:23:11;;;;;;;4.30;2.60;;;11.50;97.30;;;;;;4997564;28;20461;-93
2022/09/20 08:25:41;;;;;;;2.70;2.57;;;11.60;97.30;;;;;;5031141;28;20456;-93
2022/09/20 08:28:09;;;;;;;3.67;2.23;;;11.60;97.30;;;;;;5014707;28;20184;-93
2022/09/20 08:30:37;;;;;;;2.70;2.50;;;11.70;97.30;;;;;;4992608;28;20853;-93
2022/09/20 08:33:03;;;;;;;3.17;2.10;;;11.70;97.30;;;;;;5023199;28;20464;-93
2022/09/20 08:35:33;;;;;;;6.80;3.23;;;11.70;97.30;;;;;;5032484;28;20537;-93
2022/09/20 08:38:01;;;;;;;14.33;2.40;;;11.80;97.30;;;;;;5034611;28;20479;-93
2022/09/20 08:40:31;;;;;;;4.80;2.30;;;11.80;97.30;;;;;;5010921;28;20483;-92
2022/09/20 08:42:57;;;;;;;7.20;2.10;;;11.80;97.30;;;;;;5041268;28;20450;-93
2022/09/20 08:45:25;;;;;;;11.00;5.50;;;11.80;97.30;;;;;;5016701;28;20464;-94
2022/09/20 08:48:01;;;;;;;2.63;2.43;;;11.80;97.30;;;;;;5037350;28;20228;-96
2022/09/20 08:50:26;;;;;;;6.43;2.30;;;11.90;97.30;;;;;;5030652;28;20416;-95
2022/09/20 08:52:58;;;;;;;4.60;3.33;;;11.90;97.30;;;;;;5021307;28;20945;-92
2022/09/20 08:55:39;;;;;;;2.13;1.80;;;11.90;97.30;;;;;;5015362;28;20192;-93
2022/09/20 08:58:04;;;;;;;1.47;1.37;;;11.90;97.30;;;;;;5017513;28;20485;-93
2022/09/20 09:00:33;;;;;;;3.83;2.87;;;11.80;97.30;;;;;;5031174;28;20416;-93
2022/09/20 09:03:18;;;;;;;2.70;2.37;;;11.80;97.30;;;;;;5015848;28;20230;-92
2022/09/20 09:05:56;;;;;;;3.83;2.07;;;11.80;97.30;;;;;;5014827;28;20483;-93
2022/09/20 09:08:34;;;;;;;4.97;2.07;;;11.80;97.30;;;;;;5014089;28;20420;-93
2022/09/20 09:11:08;;;;;;;4.93;2.20;;;11.80;97.30;;;;;;5015379;28;20426;-93
2022/09/20 09:13:51;;;;;;;2.20;1.83;;;11.80;97.30;;;;;;5021299;28;20522;-93
2022/09/20 09:16:19;;;;;;;5.93;2.93;;;11.80;97.30;;;;;;5017983;28;20468;-93
2022/09/20 09:18:54;;;;;;;3.23;2.33;;;11.80;97.30;;;;;;5022213;28;20424;-93
2022/09/20 09:21:30;;;;;;;5.33;2.67;;;11.70;97.30;;;;;;5016070;28;20423;-92
2022/09/20 09:24:08;;;;;;;1.77;1.37;;;11.70;97.30;;;;;;5034458;28;20875;-93
2022/09/20 09:26:42;;;;;;;3.20;1.77;;;11.70;97.30;;;;;;5007211;28;20475;-94
2022/09/20 09:29:09;;;;;;;1.40;1.30;;;11.80;97.30;;;;;;5010108;28;20417;-91
2022/09/20 09:31:35;;;;;;;5.40;3.57;;;11.80;97.30;;;;;;5014447;28;20431;-93
2022/09/20 09:34:00;;;;;;;1.90;1.80;;;11.90;97.30;;;;;;5025009;28;20472;-93
2022/09/20 09:36:26;;;;;;;7.77;3.90;;;12.00;97.30;;;;;;5030906;28;20462;-93
2022/09/20 09:39:15;;;;;;;6.10;2.07;;;12.10;97.30;;;;;;5029993;28;20268;-94
2022/09/20 09:41:42;;;;;;;7.27;3.93;;;12.20;97.30;;;;;;5016897;28;20689;-92
2022/09/20 09:44:20;;;;;;;5.87;4.30;;;12.30;97.30;;;;;;5014411;28;20938;-92
2022/09/20 09:47:01;;;;;;;5.47;3.57;;;12.50;97.30;;;;;;5004692;28;20543;-93
2022/09/20 09:49:34;;;;;;;6.97;4.00;;;12.70;97.30;;;;;;5012233;28;20409;-90
2022/09/20 09:52:52;;;;;;;1.77;1.60;;;12.80;97.30;;;;;;5016959;28;20419;-90
2022/09/20 09:55:51;;;;;;;2.27;1.60;;;12.90;97.30;;;;;;4990151;28;20421;-89
2022/09/20 09:58:35;;;;;;;1.93;1.83;;;12.90;97.30;;;;;;5026945;28;20416;-91
2022/09/20 10:04:33;;;;;;;1.93;1.70;;;13.00;97.30;;;;;;4998287;28;20790;-91
2022/09/20 10:07:33;;;;;;;2.03;1.73;;;13.00;97.30;;;;;;5028910;28;20464;-90
2022/09/20 10:10:42;;;;;;;4.53;1.83;;;13.10;97.30;;;;;;5006571;28;20453;-89
2022/09/20 10:13:42;;;;;;;3.37;1.63;;;13.30;97.30;;;;;;4995957;28;20452;-90
2022/09/20 10:16:30;;;;;;;1.83;1.73;;;13.40;97.30;;;;;;5016330;28;20786;-90
2022/09/20 10:19:20;;;;;;;6.63;2.70;;;13.50;97.30;;;;;;4999466;28;20420;-89
2022/09/20 10:21:56;;;;;;;4.13;1.83;;;13.40;97.30;;;;;;4990144;28;20424;-89
2022/09/20 10:24:49;;;;;;;4.23;1.93;;;13.40;97.30;;;;;;5013486;28;20443;-90
2022/09/20 11:08:52;;;;;;;3.10;1.20;;;14.80;97.30;;;;;;5033917;28;20533;-91
2022/09/20 11:11:48;;;;;;;;;;;;;;;;;;;;;
2022/09/20 11:15:05;;;;;;;;;;;;;;;;;;;;;
2022/09/20 11:18:22;;;;;;;1.63;1.53;;;14.70;97.30;;;;;;5008649;28;20444;-91
2022/09/20 11:22:03;;;;;;;4.00;1.70;;;14.60;97.30;;;;;;4989766;28;20483;-91
2022/09/20 11:25:13;;;;;;;3.00;1.60;;;14.70;97.30;;;;;;4901742;29;20420;-91
2022/09/20 11:28:25;;;;;;;;;;;;;;;;;;;;;
2022/09/20 11:31:04;;;;;;;2.50;1.83;;;15.10;97.30;;;;;;4971457;28;20959;-91
2022/09/20 11:34:27;;;;;;;;;;;;;;;;;;;;;
2022/09/20 11:37:03;;;;;;;3.00;2.10;;;15.70;96.70;;;;;;4974849;28;20424;-90
2022/09/20 11:39:34;;;;;;;5.53;1.73;;;15.80;97.30;;;;;;4989695;28;20440;-92
2022/09/20 11:42:44;;;;;;;3.17;1.80;;;15.70;96.50;;;;;;4984229;28;20803;-88
2022/09/20 11:48:42;;;;;;;;;;;;;;;;;;;;;
2022/09/20 11:51:33;;;;;;;12.40;1.40;;;14.90;97.30;;;;;;4955862;29;20440;-90
2022/09/20 11:54:27;;;;;;;2.40;1.43;;;14.80;97.30;;;;;;5044854;28;20425;-90
2022/09/20 11:57:00;;;;;;;2.10;1.53;;;14.80;97.30;;;;;;5041466;28;20418;-91
2022/09/20 11:59:34;;;;;;;1.90;1.30;;;14.90;97.30;;;;;;5038534;28;20442;-91
2022/09/20 12:02:03;;;;;;;1.97;1.83;;;15.10;97.30;;;;;;5049754;28;20430;-90
2022/09/20 12:04:32;;;;;;;4.60;1.90;;;15.40;97.30;;;;;;5037571;28;20418;-93
2022/09/20 12:07:25;;;;;;;4.10;1.70;;;15.70;97.30;;;;;;5048840;28;20665;-92
2022/09/20 12:10:00;;;;;;;1.40;1.30;;;15.90;97.30;;;;;;5017601;28;20514;-90
2022/09/20 12:12:42;;;;;;;1.27;1.17;;;16.00;95.70;;;;;;5008678;28;20469;-92
2022/09/20 12:15:20;;;;;;;1.13;1.03;;;16.20;95.10;;;;;;5014817;28;20506;-91
2022/09/20 12:17:46;;;;;;;1.50;1.40;;;16.30;93.00;;;;;;5021199;28;20451;-91
2022/09/20 12:20:33;;;;;;;2.93;2.00;;;16.50;94.00;;;;;;5014779;28;20423;-91
2022/09/20 12:23:39;;;;;;;2.90;1.73;;;16.60;93.80;;;;;;5016615;28;20185;-92
2022/09/20 12:26:21;;;;;;;1.40;1.37;;;16.60;93.90;;;;;;5015914;28;20462;-92
2022/09/20 12:28:58;;;;;;;1.47;1.27;;;16.40;93.60;;;;;;5005312;28;20442;-92
2022/09/20 12:31:24;;;;;;;1.43;1.00;;;16.30;92.40;;;;;;5016220;28;20423;-91
2022/09/20 12:34:08;;;;;;;1.50;1.40;;;16.20;91.60;;;;;;5023470;28;20446;-90
2022/09/20 12:36:37;;;;;;;1.70;1.33;;;16.30;91.50;;;;;;5018237;28;20411;-93
2022/09/20 12:39:15;;;;;;;1.67;1.27;;;16.50;92.00;;;;;;5022483;28;20448;-91
2022/09/20 12:41:59;;;;;;;2.60;2.20;;;16.70;93.00;;;;;;5004527;28;20438;-91
2022/09/20 12:45:15;;;;;;;1.17;1.07;;;16.90;93.30;;;;;;5028881;28;20420;-91
2022/09/20 12:47:52;;;;;;;1.50;1.40;;;16.90;93.20;;;;;;5017003;28;20435;-91
2022/09/20 12:53:12;;;;;;;4.10;2.07;;;17.10;90.90;;;;;;5032607;28;20608;-92
2022/09/20 12:55:42;;;;;;;1.63;1.63;;;17.40;91.40;;;;;;5015347;28;20414;-91
2022/09/20 12:58:12;;;;;;;1.07;1.00;;;17.60;91.40;;;;;;5033124;28;20463;-91
2022/09/20 13:00:41;;;;;;;2.13;1.97;;;17.80;89.90;;;;;;5027922;28;20408;-90
2022/09/20 13:03:42;;;;;;;1.30;1.30;;;17.90;90.90;;;;;;5005837;28;20454;-91
2022/09/20 13:06:09;;;;;;;2.13;1.93;;;18.10;90.10;;;;;;5005034;28;20450;-93
2022/09/20 13:08:59;;;;;;;1.67;1.60;;;18.10;88.30;;;;;;5035968;28;20469;-92
2022/09/20 13:11:42;;;;;;;2.80;1.67;;;18.00;87.70;;;;;;5027345;28;20423;-91
2022/09/20 13:14:17;;;;;;;5.33;1.60;;;17.80;88.60;;;;;;5023001;28;20797;-92
2022/09/20 13:16:55;;;;;;;2.07;1.93;;;17.60;89.30;;;;;;5033337;28;20413;-91
2022/09/20 13:19:27;;;;;;;2.23;1.77;;;17.60;89.70;;;;;;5043376;28;20872;-92
2022/09/20 13:21:57;;;;;;;1.40;1.33;;;17.80;88.50;;;;;;5035374;28;20484;-91
2022/09/20 13:24:24;;;;;;;1.33;1.23;;;17.90;87.80;;;;;;5033740;28;20430;-92
2022/09/20 13:26:52;;;;;;;1.17;1.07;;;18.00;89.90;;;;;;5037592;28;20458;-91
2022/09/20 13:29:30;;;;;;;2.20;1.50;;;18.10;89.00;;;;;;5034505;28;20449;-90
2022/09/20 13:32:13;;;;;;;8.07;1.20;;;18.30;87.10;;;;;;5039769;28;20409;-92
2022/09/20 13:34:38;;;;;;;1.00;0.90;;;18.20;84.80;;;;;;5031998;28;20467;-90
2022/09/20 13:37:04;;;;;;;0.70;0.70;;;18.20;83.80;;;;;;5015190;28;20481;-92
2022/09/20 13:39:36;;;;;;;2.27;1.40;;;18.30;85.70;;;;;;5034736;28;20282;-91
2022/09/20 13:42:07;;;;;;;0.80;0.70;;;18.40;85.40;;;;;;5034367;28;20776;-91
2022/09/20 13:44:33;;;;;;;1.00;1.00;;;18.50;85.00;;;;;;5034850;28;20422;-92
2022/09/20 13:47:00;;;;;;;1.20;1.07;;;18.50;83.50;;;;;;5034876;28;20450;-92
2022/09/20 13:49:30;;;;;;;1.20;1.00;;;18.50;83.20;;;;;;5034018;28;20488;-92
2022/09/20 13:51:56;;;;;;;1.23;1.13;;;18.30;84.20;;;;;;5043846;28;20674;-92
2022/09/20 13:54:26;;;;;;;1.30;0.83;;;18.30;86.00;;;;;;5038433;28;20501;-91
2022/09/20 13:56:54;;;;;;;2.77;1.67;;;18.30;85.40;;;;;;5040883;28;20176;-91
2022/09/20 13:59:21;;;;;;;3.13;1.00;;;18.30;84.90;;;;;;5036619;28;20446;-91
2022/09/20 14:01:53;;;;;;;1.00;0.90;;;18.40;84.00;;;;;;5039714;28;20450;-91
2022/09/20 14:04:27;;;;;;;1.30;0.93;;;18.50;82.60;;;;;;5031966;28;20510;-92
2022/09/20 14:06:56;;;;;;;1.03;0.97;;;18.60;81.50;;;;;;5028529;28;20473;-92
2022/09/20 14:09:35;;;;;;;0.80;0.80;;;18.50;81.30;;;;;;5023519;28;20438;-91
2022/09/20 14:12:03;;;;;;;1.03;0.90;;;18.50;82.80;;;;;;5031023;28;20415;-94
2022/09/20 14:14:30;;;;;;;1.00;0.90;;;18.70;84.50;;;;;;5025620;28;20426;-92
2022/09/20 14:20:43;;;;;;;;;;;;;;;;;;;;;
2022/09/20 14:26:52;;;;;;;0.70;0.70;;;19.00;82.70;;;;;;4970273;28;20466;-92
2022/09/20 14:32:54;;;;;;;1.30;1.20;;;19.10;79.80;;;;;;4960345;28;20431;-91
2022/09/20 14:35:34;;;;;;;1.33;1.00;;;19.10;79.30;;;;;;4932594;29;20430;-92
2022/09/20 14:38:13;;;;;;;0.70;0.70;;;19.10;80.20;;;;;;4987261;28;20439;-91
2022/09/20 14:40:55;;;;;;;0.80;0.80;;;19.10;82.20;;;;;;5028477;28;20925;-91
2022/09/20 14:43:23;;;;;;;1.03;1.00;;;19.30;80.90;;;;;;5031776;28;20414;-93
2022/09/20 14:46:34;;;;;;;0.90;0.87;;;19.30;81.40;;;;;;5046176;28;20458;-93
2022/09/20 14:52:54;;;;;;;0.87;0.80;;;19.50;81.10;;;;;;4979344;28;20436;-93
2022/09/20 14:55:33;;;;;;;1.53;1.00;;;19.50;79.40;;;;;;5043281;28;20421;-92
2022/09/20 14:58:14;;;;;;;1.17;1.07;;;19.50;79.50;;;;;;5030658;28;20951;-92
2022/09/20 15:01:23;;;;;;;2.20;1.10;;;19.60;79.80;;;;;;5021719;28;20418;-91
2022/09/20 15:04:22;;;;;;;0.90;0.80;;;19.60;80.60;;;;;;4967808;28;20411;-91
2022/09/20 15:07:01;;;;;;;1.30;1.20;;;19.60;80.20;;;;;;5029366;28;21003;-93
2022/09/20 15:10:05;;;;;;;1.20;1.10;;;19.70;81.10;;;;;;5019198;28;20434;-92
2022/09/20 15:12:33;;;;;;;10.00;1.67;;;19.70;82.70;;;;;;5041997;28;20419;-92
2022/09/20 15:15:01;;;;;;;1.00;0.90;;;19.80;82.80;;;;;;5045183;28;20410;-92